Time;durP1;ratioP1;P1;durP2;ratioP2;P2;SDS_P1;SDS_P2;PMS_P1;PMS_P2;Temp;Humidity;BMP_temperature;BMP_pressure;BME280_temperature;BME280_humidity;BME280_pressure;Samples;Min_cycle;Max_cycle;Signal;HPM_P1;HPM_P2
2021/03/03 00:00:16;;;;;;;111.05;58.05;;;154.50;1843.20;;;;;;5013778;28;20502;-71
2021/03/03 00:02:42;;;;;;;111.68;56.67;;;154.40;1817.60;;;;;;5013787;28;20028;-70
2021/03/03 00:05:09;;;;;;;111.82;59.45;;;154.50;1817.60;;;;;;5013537;28;20022;-71
2021/03/03 00:07:35;;;;;;;116.25;59.80;;;154.50;1792.00;;;;;;5013466;28;20029;-71
2021/03/03 00:10:02;;;;;;;109.35;59.25;;;154.40;1817.60;;;;;;5013451;28;20026;-71
2021/03/03 00:12:29;;;;;;;113.85;59.03;;;154.40;1817.60;;;;;;5013144;28;20065;-71
2021/03/03 00:14:54;;;;;;;115.60;58.95;;;154.40;1817.60;;;;;;5013116;28;20145;-71
2021/03/03 00:17:20;;;;;;;117.82;58.38;;;154.40;1817.60;;;;;;5013551;28;20037;-71
2021/03/03 00:19:46;;;;;;;108.07;57.05;;;154.40;1817.60;;;;;;5013200;28;20029;-71
2021/03/03 00:22:11;;;;;;;111.43;57.72;;;154.50;1817.60;;;;;;5012154;28;20179;-71
2021/03/03 00:24:37;;;;;;;116.80;56.97;;;154.50;1792.00;;;;;;5013121;28;20037;-71
2021/03/03 00:27:03;;;;;;;114.00;57.95;;;154.50;1792.00;;;;;;5013273;28;20026;-71
2021/03/03 00:29:28;;;;;;;108.30;56.88;;;154.50;1792.00;;;;;;5011751;28;20030;-71
2021/03/03 00:31:54;;;;;;;117.28;57.97;;;179.20;1792.00;;;;;;5013247;28;20020;-71
2021/03/03 00:34:20;;;;;;;109.68;57.15;;;179.20;1766.40;;;;;;5013210;28;20069;-71
2021/03/03 00:36:46;;;;;;;111.50;58.17;;;179.20;1766.40;;;;;;5012872;28;20460;-71
2021/03/03 00:39:11;;;;;;;117.80;58.50;;;179.20;1792.00;;;;;;5013130;28;20030;-71
2021/03/03 00:41:37;;;;;;;114.85;59.30;;;179.20;1766.40;;;;;;5012745;28;20025;-71
2021/03/03 00:44:03;;;;;;;119.43;60.42;;;179.20;1766.40;;;;;;5012845;28;20029;-71
2021/03/03 00:46:28;;;;;;;115.82;59.28;;;179.20;1766.40;;;;;;5012717;28;20037;-72
2021/03/03 00:48:54;;;;;;;113.22;58.80;;;179.20;1766.40;;;;;;5013125;28;20022;-71
2021/03/03 00:51:20;;;;;;;113.95;58.22;;;179.20;1766.40;;;;;;5011532;28;20091;-71
2021/03/03 00:53:46;;;;;;;115.90;58.83;;;179.20;1766.40;;;;;;5012787;28;20071;-71
2021/03/03 00:56:12;;;;;;;116.57;59.92;;;179.20;1792.00;;;;;;5012560;28;20030;-70
2021/03/03 00:58:37;;;;;;;108.25;57.63;;;154.50;1792.00;;;;;;5012552;28;20493;-71
2021/03/03 01:01:04;;;;;;;110.15;57.65;;;179.20;1792.00;;;;;;5012686;28;20022;-71
2021/03/03 01:03:29;;;;;;;106.55;55.83;;;179.20;1766.40;;;;;;5012638;28;20064;-71
2021/03/03 01:05:55;;;;;;;106.10;57.90;;;179.20;1792.00;;;;;;5012405;28;20085;-71
2021/03/03 01:08:21;;;;;;;118.53;59.03;;;179.20;1766.40;;;;;;5012565;28;20483;-71
2021/03/03 01:10:47;;;;;;;112.75;57.25;;;179.20;1792.00;;;;;;5012345;28;20029;-72
2021/03/03 01:13:12;;;;;;;111.75;60.35;;;154.50;1792.00;;;;;;5010979;28;20065;-72
2021/03/03 01:15:38;;;;;;;114.50;58.72;;;154.50;1792.00;;;;;;5011959;28;20173;-71
2021/03/03 01:18:04;;;;;;;108.82;57.55;;;154.40;1817.60;;;;;;5012365;28;20062;-71
2021/03/03 01:20:31;;;;;;;112.35;56.72;;;154.40;1817.60;;;;;;5012057;28;20076;-71
2021/03/03 01:22:58;;;;;;;115.90;59.45;;;154.50;1792.00;;;;;;5011916;28;20036;-70
2021/03/03 01:25:24;;;;;;;115.53;59.28;;;154.50;1792.00;;;;;;5012207;28;20032;-72
2021/03/03 01:27:50;;;;;;;109.28;57.95;;;154.50;1792.00;;;;;;5012064;28;20028;-71
2021/03/03 01:30:16;;;;;;;107.53;59.58;;;154.50;1792.00;;;;;;5011902;28;20108;-71
2021/03/03 01:32:42;;;;;;;115.90;61.22;;;154.40;1792.00;;;;;;5012051;28;20046;-71
2021/03/03 01:35:08;;;;;;;107.70;57.38;;;154.40;1792.00;;;;;;5011859;28;20476;-71
2021/03/03 01:37:34;;;;;;;114.63;58.80;;;154.40;1792.00;;;;;;5012219;28;20530;-71
2021/03/03 01:40:00;;;;;;;115.93;58.85;;;154.30;1792.00;;;;;;5011900;28;20380;-71
2021/03/03 01:42:25;;;;;;;98.85;53.83;;;154.40;1817.60;;;;;;5011759;28;20037;-71
2021/03/03 01:44:51;;;;;;;101.55;55.33;;;154.40;1817.60;;;;;;5010600;28;20052;-71
2021/03/03 01:47:17;;;;;;;104.63;53.55;;;154.40;1817.60;;;;;;5011669;28;20050;-72
2021/03/03 01:49:42;;;;;;;105.25;55.03;;;154.30;1817.60;;;;;;5011836;28;20101;-71
2021/03/03 01:52:08;;;;;;;100.28;53.97;;;154.30;1817.60;;;;;;5010163;28;20037;-71
2021/03/03 01:54:34;;;;;;;104.55;55.13;;;154.30;1817.60;;;;;;5012164;28;20408;-72
2021/03/03 01:57:02;;;;;;;106.25;54.58;;;154.30;1817.60;;;;;;5011679;28;20030;-72
2021/03/03 01:59:27;;;;;;;97.35;53.00;;;154.30;1817.60;;;;;;5011396;28;20045;-71
2021/03/03 02:01:53;;;;;;;100.10;53.38;;;154.30;1843.20;;;;;;5011657;28;20460;-72
2021/03/03 02:04:19;;;;;;;100.28;52.15;;;154.30;1868.80;;;;;;5009876;28;20037;-71
2021/03/03 02:07:14;;;;;;;99.13;51.30;;;154.30;1817.60;;;;;;5011574;28;20022;-72
2021/03/03 02:10:00;;;;;;;89.45;47.60;;;154.20;1817.60;;;;;;4951171;29;20066;-72
2021/03/03 02:12:41;;;;;;;88.28;49.05;;;154.30;1843.20;;;;;;4950736;29;20035;-72
2021/03/03 02:15:09;;;;;;;85.17;47.60;;;154.30;1843.20;;;;;;4950467;28;20050;-71
2021/03/03 02:17:37;;;;;;;82.50;46.45;;;154.30;1843.20;;;;;;4950617;29;20078;-71
2021/03/03 02:20:07;;;;;;;82.70;47.22;;;154.30;1817.60;;;;;;4950849;29;20530;-72
2021/03/03 02:22:54;;;;;;;94.97;48.88;;;154.30;1792.00;;;;;;4950807;29;20027;-71
2021/03/03 02:25:32;;;;;;;85.10;46.72;;;154.30;1817.60;;;;;;4950838;29;20070;-71
2021/03/03 02:28:03;;;;;;;80.72;44.65;;;154.30;1792.00;;;;;;4950641;29;20045;-72
2021/03/03 02:30:30;;;;;;;78.72;44.97;;;154.30;1817.60;;;;;;4950809;29;20034;-72
2021/03/03 02:32:57;;;;;;;80.25;44.88;;;154.30;1817.60;;;;;;4949763;28;20553;-72
2021/03/03 02:35:24;;;;;;;86.88;47.85;;;154.30;1792.00;;;;;;4950668;29;20038;-72
2021/03/03 02:37:50;;;;;;;81.03;46.45;;;154.30;1792.00;;;;;;4950634;29;20042;-72
2021/03/03 02:40:17;;;;;;;84.95;47.42;;;154.20;1792.00;;;;;;4950586;29;20354;-71
2021/03/03 02:42:43;;;;;;;87.18;46.90;;;154.20;1817.60;;;;;;4934126;29;20044;-71
2021/03/03 02:45:14;;;;;;;83.03;46.53;;;154.20;1792.00;;;;;;4950321;29;20031;-72
2021/03/03 02:47:40;;;;;;;;;;;154.30;1792.00;;;;;;5006742;28;20492;-71
2021/03/03 02:50:08;;;;;;;87.53;46.50;;;154.30;1792.00;;;;;;5010633;28;19913;-71
2021/03/03 02:53:05;;;;;;;85.22;47.50;;;154.20;1792.00;;;;;;5010838;28;20053;-72
2021/03/03 02:55:32;;;;;;;84.55;46.70;;;154.10;1792.00;;;;;;4950523;29;20170;-71
2021/03/03 02:57:59;;;;;;;88.18;47.40;;;154.10;1792.00;;;;;;4934065;29;20047;-73
2021/03/03 03:00:40;;;;;;;86.75;47.70;;;154.00;1792.00;;;;;;4950245;29;20528;-71
2021/03/03 03:03:12;;;;;;;85.05;47.38;;;154.00;1817.60;;;;;;4950214;29;20119;-71
2021/03/03 03:05:42;;;;;;;89.43;47.15;;;154.00;1843.20;;;;;;4950282;29;20577;-71
2021/03/03 03:08:13;;;;;;;87.47;46.53;;;154.00;1817.60;;;;;;4950330;29;20027;-70
2021/03/03 03:10:40;;;;;;;90.50;48.65;;;153.90;1817.60;;;;;;4950211;29;20031;-71
2021/03/03 03:13:11;;;;;;;90.75;49.20;;;153.90;1843.20;;;;;;4949866;29;20071;-72
2021/03/03 03:15:38;;;;;;;93.07;49.40;;;153.90;1843.20;;;;;;4949928;29;20073;-71
2021/03/03 03:18:07;;;;;;;90.20;49.42;;;153.80;1843.20;;;;;;4934097;29;20284;-71
2021/03/03 03:20:35;;;;;;;90.53;49.45;;;153.80;1868.80;;;;;;4950201;29;20551;-72
2021/03/03 03:23:04;;;;;;;92.22;50.08;;;153.70;1868.80;;;;;;4950233;29;20067;-71
2021/03/03 03:25:31;;;;;;;88.90;49.78;;;153.70;1868.80;;;;;;4950117;29;20038;-72
2021/03/03 03:27:59;;;;;;;93.05;48.08;;;153.70;1868.80;;;;;;4949939;29;20038;-71
2021/03/03 03:30:25;;;;;;;93.47;49.75;;;153.60;1868.80;;;;;;4963229;28;20038;-71
2021/03/03 03:32:51;;;;;;;91.85;49.72;;;153.60;1843.20;;;;;;5010475;28;20416;-72
2021/03/03 03:35:17;;;;;;;88.00;49.45;;;153.60;1868.80;;;;;;5010413;28;20033;-71
2021/03/03 03:37:43;;;;;;;93.53;50.85;;;128.90;1894.40;;;;;;5010427;28;20038;-72
2021/03/03 03:40:10;;;;;;;91.40;48.55;;;128.80;1868.80;;;;;;5010160;28;20511;-72
2021/03/03 03:42:38;;;;;;;96.20;49.63;;;153.70;1894.40;;;;;;5010162;28;20034;-71
2021/03/03 03:45:05;;;;;;;89.60;48.88;;;128.80;1894.40;;;;;;5012233;28;20057;-72
2021/03/03 03:47:32;;;;;;;91.38;48.70;;;128.80;1894.40;;;;;;5014102;28;20026;-71
2021/03/03 03:50:02;;;;;;;89.43;49.58;;;128.80;1894.40;;;;;;5013880;28;20169;-71
2021/03/03 03:52:28;;;;;;;92.05;50.35;;;128.70;1894.40;;;;;;5013874;28;20515;-72
2021/03/03 03:54:54;;;;;;;102.05;52.33;;;128.70;1920.00;;;;;;5013909;28;20060;-71
2021/03/03 03:57:21;;;;;;;100.28;53.25;;;128.70;1894.40;;;;;;5013461;28;20535;-70
2021/03/03 03:59:47;;;;;;;106.10;52.78;;;128.60;1920.00;;;;;;5013701;28;20105;-74
2021/03/03 04:02:14;;;;;;;97.38;53.92;;;128.60;1920.00;;;;;;5013798;28;20084;-73
2021/03/03 04:04:40;;;;;;;99.57;51.83;;;128.60;1920.00;;;;;;5013830;28;20044;-73
2021/03/03 04:07:05;;;;;;;110.13;55.78;;;128.60;1945.60;;;;;;5013312;28;20455;-71
2021/03/03 04:09:32;;;;;;;103.90;51.80;;;128.50;1920.00;;;;;;5013707;28;20093;-72
2021/03/03 04:11:58;;;;;;;99.55;51.25;;;128.50;1920.00;;;;;;5013335;28;20487;-72
2021/03/03 04:14:24;;;;;;;97.65;50.88;;;128.60;1920.00;;;;;;5013260;28;20054;-73
2021/03/03 04:16:49;;;;;;;116.38;57.80;;;128.60;1894.40;;;;;;5013358;28;20162;-72
2021/03/03 04:19:16;;;;;;;115.35;56.17;;;128.60;1894.40;;;;;;5013317;28;20093;-72
2021/03/03 04:21:42;;;;;;;118.55;58.85;;;128.70;1894.40;;;;;;5013486;28;20077;-72
2021/03/03 04:24:07;;;;;;;133.30;63.08;;;128.60;1894.40;;;;;;5013236;28;20523;-73
2021/03/03 04:26:34;;;;;;;120.50;62.08;;;128.60;1894.40;;;;;;5013226;28;20022;-72
2021/03/03 04:28:59;;;;;;;117.57;59.88;;;128.50;1868.80;;;;;;5013195;28;20424;-72
2021/03/03 04:31:25;;;;;;;115.70;60.25;;;128.50;1868.80;;;;;;5013101;28;20026;-72
2021/03/03 04:33:51;;;;;;;115.65;59.20;;;128.50;1868.80;;;;;;5013068;28;20025;-73
2021/03/03 04:36:17;;;;;;;114.95;60.47;;;128.50;1843.20;;;;;;5012844;28;20045;-72
2021/03/03 04:38:42;;;;;;;118.47;60.28;;;128.40;1843.20;;;;;;5012967;28;20065;-73
2021/03/03 04:41:08;;;;;;;131.23;65.93;;;128.30;1868.80;;;;;;5012638;28;20033;-72
2021/03/03 04:43:34;;;;;;;124.10;64.53;;;128.10;1868.80;;;;;;5011563;28;20034;-72
2021/03/03 04:45:59;;;;;;;127.07;64.72;;;128.10;1894.40;;;;;;5011570;28;20034;-73
2021/03/03 04:48:25;;;;;;;119.50;63.90;;;128.00;1920.00;;;;;;5012657;28;20388;-73
2021/03/03 04:50:51;;;;;;;117.20;60.08;;;103.30;1894.40;;;;;;5011621;28;20022;-73
2021/03/03 04:53:18;;;;;;;115.00;61.28;;;103.30;1868.80;;;;;;5012599;28;20037;-73
2021/03/03 04:55:44;;;;;;;111.28;60.03;;;103.30;1868.80;;;;;;5011796;28;20827;-72
2021/03/03 04:58:10;;;;;;;119.30;61.85;;;103.20;1894.40;;;;;;5012644;28;20111;-72
2021/03/03 05:00:36;;;;;;;121.93;61.22;;;103.20;1894.40;;;;;;5012492;28;20053;-73
2021/03/03 05:03:02;;;;;;;126.95;61.20;;;103.10;1920.00;;;;;;5011304;28;20036;-73
2021/03/03 05:05:28;;;;;;;124.78;65.78;;;103.10;1894.40;;;;;;5012371;28;20491;-72
2021/03/03 05:07:53;;;;;;;128.52;64.32;;;103.10;1920.00;;;;;;5012503;28;20053;-73
2021/03/03 05:10:19;;;;;;;135.43;65.53;;;103.00;1894.40;;;;;;5012480;28;20397;-72
2021/03/03 05:12:45;;;;;;;117.95;60.67;;;103.00;1920.00;;;;;;5011992;28;20026;-72
2021/03/03 05:15:11;;;;;;;121.20;62.33;;;103.00;1894.40;;;;;;5010917;28;20058;-72
2021/03/03 05:17:37;;;;;;;117.18;61.75;;;103.10;1920.00;;;;;;5010607;28;20096;-73
2021/03/03 05:20:04;;;;;;;132.15;67.88;;;103.10;1894.40;;;;;;5012300;28;20105;-73
2021/03/03 05:22:29;;;;;;;153.50;78.20;;;103.00;1894.40;;;;;;5012171;28;20381;-72
2021/03/03 05:24:55;;;;;;;177.18;89.57;;;103.00;1894.40;;;;;;5012065;28;20026;-73
2021/03/03 05:27:21;;;;;;;199.95;102.45;;;103.10;1894.40;;;;;;5012174;28;20030;-73
2021/03/03 05:29:46;;;;;;;200.70;102.63;;;103.10;1894.40;;;;;;5010545;28;20134;-73
2021/03/03 05:32:12;;;;;;;179.88;92.50;;;103.10;1920.00;;;;;;5010760;28;20432;-73
2021/03/03 05:34:38;;;;;;;157.75;82.93;;;103.10;1920.00;;;;;;5010544;28;20029;-73
2021/03/03 05:37:03;;;;;;;142.38;75.47;;;103.00;1920.00;;;;;;5011921;28;20440;-72
2021/03/03 05:39:29;;;;;;;134.30;72.75;;;103.10;1920.00;;;;;;5011930;28;20084;-72
2021/03/03 05:42:01;;;;;;;127.65;67.80;;;103.10;1920.00;;;;;;5011753;28;20026;-72
2021/03/03 05:44:28;;;;;;;121.10;64.55;;;103.20;1920.00;;;;;;5011606;28;20029;-72
2021/03/03 05:46:56;;;;;;;124.78;68.47;;;103.20;1920.00;;;;;;5010527;28;20030;-72
2021/03/03 05:49:25;;;;;;;129.13;68.45;;;103.30;1894.40;;;;;;5011866;28;20018;-73
2021/03/03 05:51:53;;;;;;;127.35;68.10;;;128.00;1920.00;;;;;;5011808;28;20018;-72
2021/03/03 05:54:20;;;;;;;127.25;66.25;;;103.30;1920.00;;;;;;5011514;28;20024;-73
2021/03/03 05:56:48;;;;;;;133.00;68.97;;;103.20;1920.00;;;;;;5011373;28;20388;-73
2021/03/03 05:59:16;;;;;;;136.02;70.82;;;103.10;1945.60;;;;;;5011620;28;20158;-73
2021/03/03 06:01:44;;;;;;;133.15;72.30;;;103.10;1945.60;;;;;;5010289;28;20032;-72
2021/03/03 06:04:10;;;;;;;137.75;73.72;;;103.10;1971.20;;;;;;5011542;28;20028;-73
2021/03/03 06:06:40;;;;;;;147.23;74.45;;;103.10;1971.20;;;;;;5011293;28;20096;-73
2021/03/03 06:09:06;;;;;;;130.40;70.20;;;103.10;1945.60;;;;;;5011181;28;20037;-73
2021/03/03 06:11:32;;;;;;;133.90;72.95;;;103.10;1945.60;;;;;;5009939;28;20041;-73
2021/03/03 06:14:01;;;;;;;136.88;72.07;;;103.20;1945.60;;;;;;5010929;28;20424;-73
2021/03/03 06:16:27;;;;;;;140.20;77.22;;;103.30;1945.60;;;;;;5010988;28;20574;-73
2021/03/03 06:18:55;;;;;;;147.88;79.15;;;103.30;1971.20;;;;;;5011269;28;20029;-72
2021/03/03 06:21:29;;;;;;;147.43;77.72;;;128.00;1971.20;;;;;;5011284;28;20053;-73
2021/03/03 06:24:02;;;;;;;141.75;77.15;;;128.00;1971.20;;;;;;5011079;28;20030;-75
2021/03/03 06:26:28;;;;;;;142.90;76.80;;;128.10;1945.60;;;;;;5010931;28;20459;-77
2021/03/03 06:28:53;;;;;;;157.63;84.75;;;128.20;1971.20;;;;;;5011253;28;20049;-76
2021/03/03 06:31:33;;;;;;;160.18;86.97;;;128.30;1945.60;;;;;;5011229;28;20029;-77
2021/03/03 06:34:21;;;;;;;172.25;94.15;;;128.40;1945.60;;;;;;5010869;28;20453;-74
2021/03/03 06:36:56;;;;;;;173.88;94.85;;;128.40;1945.60;;;;;;5009575;28;20041;-75
2021/03/03 06:39:29;;;;;;;168.05;93.93;;;128.60;1920.00;;;;;;5011011;28;20522;-76
2021/03/03 06:42:06;;;;;;;176.23;92.57;;;128.60;1945.60;;;;;;5009460;28;20084;-75
2021/03/03 06:44:49;;;;;;;165.15;90.35;;;128.70;1920.00;;;;;;5010944;28;20026;-75
2021/03/03 06:47:16;;;;;;;142.80;76.25;;;128.80;1920.00;;;;;;5009349;28;20026;-75
2021/03/03 06:49:42;;;;;;;138.05;76.40;;;128.90;1920.00;;;;;;5010983;28;20101;-73
2021/03/03 06:52:07;;;;;;;145.07;77.47;;;153.60;1894.40;;;;;;5010676;28;20523;-73
2021/03/03 06:54:33;;;;;;;136.25;73.78;;;153.70;1894.40;;;;;;5009574;28;20485;-74
2021/03/03 06:57:04;;;;;;;153.35;87.50;;;154.00;1868.80;;;;;;5010480;28;20468;-74
2021/03/03 06:59:33;;;;;;;176.67;95.70;;;153.90;1868.80;;;;;;5010873;28;20092;-74
2021/03/03 07:02:01;;;;;;;161.93;91.07;;;153.90;1868.80;;;;;;5009182;28;20088;-74
2021/03/03 07:04:31;;;;;;;168.30;95.78;;;154.10;1868.80;;;;;;5025716;28;20465;-74
2021/03/03 07:07:02;;;;;;;170.48;96.55;;;154.10;1868.80;;;;;;5010461;28;20416;-74
2021/03/03 07:09:43;;;;;;;200.68;110.35;;;154.20;1868.80;;;;;;5010525;28;20044;-76
2021/03/03 07:12:14;;;;;;;198.05;116.00;;;154.30;1843.20;;;;;;5010535;28;20052;-75
2021/03/03 07:14:42;;;;;;;218.75;116.88;;;154.40;1868.80;;;;;;5009131;28;20129;-76
2021/03/03 07:17:16;;;;;;;185.00;102.38;;;154.40;1868.80;;;;;;5010243;28;20065;-72
2021/03/03 07:19:43;;;;;;;180.40;98.72;;;179.20;1843.20;;;;;;5012154;28;20041;-74
2021/03/03 07:22:21;;;;;;;193.55;105.43;;;179.20;1843.20;;;;;;5014136;28;20068;-74
2021/03/03 07:24:50;;;;;;;116.43;66.00;;;179.40;1843.20;;;;;;5014206;28;20116;-77
2021/03/03 07:27:19;;;;;;;122.57;66.60;;;179.40;1817.60;;;;;;5014043;28;20073;-74
2021/03/03 07:29:48;;;;;;;131.98;68.70;;;179.50;1817.60;;;;;;5014073;28;20068;-73
2021/03/03 07:32:15;;;;;;;119.72;64.57;;;179.60;1817.60;;;;;;5014593;28;20084;-76
2021/03/03 07:34:41;;;;;;;161.68;85.47;;;179.70;1792.00;;;;;;5013040;28;20021;-75
2021/03/03 07:37:08;;;;;;;108.03;58.03;;;179.90;1792.00;;;;;;5013991;28;20527;-71
2021/03/03 07:39:38;;;;;;;103.95;54.95;;;179.90;1766.40;;;;;;5013840;28;20467;-75
2021/03/03 07:42:08;;;;;;;109.68;56.00;;;180.00;1766.40;;;;;;5014299;28;20770;-74
2021/03/03 07:44:35;;;;;;;90.38;53.72;;;180.10;1740.80;;;;;;5014433;28;20026;-74
2021/03/03 07:47:02;;;;;;;77.10;45.97;;;204.80;1740.80;;;;;;5014013;28;20026;-75
2021/03/03 07:49:30;;;;;;;71.88;41.00;;;204.90;1715.20;;;;;;5013882;28;20088;-77
2021/03/03 07:51:56;;;;;;;81.25;48.40;;;205.00;1689.60;;;;;;5013758;28;20025;-76
2021/03/03 07:54:22;;;;;;;121.00;67.70;;;205.10;1689.60;;;;;;5014014;28;20021;-76
2021/03/03 07:56:48;;;;;;;61.33;36.38;;;205.20;1664.00;;;;;;5012350;28;20614;-76
2021/03/03 07:59:14;;;;;;;72.30;39.80;;;205.30;1638.40;;;;;;5012541;28;20144;-76
2021/03/03 08:01:40;;;;;;;85.25;46.13;;;205.30;1612.80;;;;;;5014085;28;20034;-74
2021/03/03 08:04:06;;;;;;;109.80;76.60;;;205.40;1612.80;;;;;;5012362;28;20119;-77
2021/03/03 08:06:37;;;;;;;68.53;40.90;;;205.50;1612.80;;;;;;5013815;28;20081;-75
2021/03/03 08:09:05;;;;;;;60.90;35.05;;;205.60;1612.80;;;;;;5013956;28;20017;-75
2021/03/03 08:11:44;;;;;;;71.32;45.00;;;205.70;1612.80;;;;;;5012605;28;20117;-76
2021/03/03 08:14:36;;;;;;;71.20;42.35;;;230.40;1587.20;;;;;;5012041;28;20061;-76
2021/03/03 08:17:03;;;;;;;;;;;230.50;1587.20;;;;;;5010388;28;20128;-76
2021/03/03 08:19:47;;;;;;;52.75;33.67;;;230.60;1561.60;;;;;;5011812;28;19913;-75
2021/03/03 08:22:13;;;;;;;55.22;33.10;;;230.60;1561.60;;;;;;5011569;28;20557;-74
2021/03/03 08:24:39;;;;;;;54.58;33.53;;;230.70;1561.60;;;;;;5011907;28;20100;-75
2021/03/03 08:27:29;;;;;;;52.05;32.22;;;230.90;1587.20;;;;;;5010682;28;20064;-76
2021/03/03 08:30:17;;;;;;;43.07;26.43;;;231.00;1561.60;;;;;;5011300;28;20045;-76
2021/03/03 08:32:43;;;;;;;45.95;28.63;;;231.10;1536.00;;;;;;5008347;28;20065;-80
2021/03/03 08:35:10;;;;;;;75.68;45.38;;;231.20;1510.40;;;;;;5010361;28;20423;-75
2021/03/03 08:37:38;;;;;;;49.25;29.58;;;231.30;1510.40;;;;;;5011813;28;20088;-76
2021/03/03 08:40:25;;;;;;;46.13;27.58;;;256.00;1510.40;;;;;;5012064;28;20492;-75
2021/03/03 08:42:50;;;;;;;44.95;29.90;;;256.10;1484.80;;;;;;5010770;28;20377;-75
2021/03/03 08:45:17;;;;;;;182.13;111.85;;;256.30;1484.80;;;;;;5011608;28;20026;-75
2021/03/03 08:47:45;;;;;;;120.13;72.57;;;256.40;1459.20;;;;;;5010038;28;20473;-75
2021/03/03 08:50:46;;;;;;;84.47;53.00;;;256.50;1459.20;;;;;;5012056;28;20033;-73
2021/03/03 08:53:27;;;;;;;44.22;27.38;;;256.70;1459.20;;;;;;4951521;29;20038;-76
2021/03/03 08:55:54;;;;;;;39.90;25.90;;;256.80;1433.60;;;;;;4934520;29;20028;-77
2021/03/03 08:58:37;;;;;;;126.07;69.22;;;256.80;1408.00;;;;;;4951065;29;20030;-74
2021/03/03 09:01:03;;;;;;;95.40;55.78;;;256.90;1408.00;;;;;;4949156;29;20057;-75
2021/03/03 09:03:30;;;;;;;46.97;27.60;;;281.60;1433.60;;;;;;4950902;29;20027;-75
2021/03/03 09:05:57;;;;;;;41.60;25.27;;;281.60;1433.60;;;;;;4935200;29;20683;-75
2021/03/03 09:08:24;;;;;;;37.03;23.48;;;281.70;1408.00;;;;;;4943143;28;20490;-77
2021/03/03 09:10:51;;;;;;;39.42;23.92;;;281.70;1408.00;;;;;;4951076;29;20493;-73
2021/03/03 09:13:27;;;;;;;40.38;25.10;;;281.80;1408.00;;;;;;4950681;29;20031;-74
2021/03/03 09:16:06;;;;;;;43.45;27.63;;;282.00;1382.40;;;;;;4934140;29;20534;-74
2021/03/03 09:18:33;;;;;;;57.60;33.50;;;282.10;1408.00;;;;;;4949696;29;20047;-74
2021/03/03 09:21:10;;;;;;;49.03;29.75;;;282.30;1356.80;;;;;;4950776;29;20027;-75
2021/03/03 09:23:36;;;;;;;56.30;34.83;;;282.30;1382.40;;;;;;4950501;29;20035;-77
2021/03/03 09:26:16;;;;;;;49.40;28.45;;;282.40;1382.40;;;;;;4953032;28;20115;-75
2021/03/03 09:28:42;;;;;;;127.25;65.28;;;282.50;1331.20;;;;;;5008733;28;20022;-74
2021/03/03 09:31:08;;;;;;;86.22;43.50;;;282.50;1331.20;;;;;;5009652;28;20866;-79
2021/03/03 09:33:34;;;;;;;239.55;109.80;;;307.20;1356.80;;;;;;5011279;28;20096;-78
2021/03/03 09:36:01;;;;;;;52.00;30.42;;;307.30;1331.20;;;;;;5011100;28;20014;-78
2021/03/03 09:38:30;;;;;;;61.17;34.17;;;307.20;1331.20;;;;;;5010688;28;20097;-76
2021/03/03 09:40:56;;;;;;;71.95;38.67;;;307.30;1331.20;;;;;;5009149;28;20029;-73
2021/03/03 09:43:22;;;;;;;40.17;24.05;;;307.50;1356.80;;;;;;5014855;28;20487;-75
2021/03/03 09:45:55;;;;;;;44.67;27.85;;;307.60;1305.60;;;;;;5010096;28;20037;-75
2021/03/03 09:48:30;;;;;;;37.50;23.48;;;307.60;1305.60;;;;;;5010988;28;20021;-78
2021/03/03 09:50:57;;;;;;;37.25;21.63;;;307.60;1305.60;;;;;;5010578;28;20373;-74
2021/03/03 09:53:22;;;;;;;39.50;25.08;;;307.70;1305.60;;;;;;5008420;28;20518;-73
2021/03/03 09:55:48;;;;;;;55.15;33.50;;;307.80;1280.00;;;;;;5008409;28;20045;-74
2021/03/03 09:58:14;;;;;;;42.70;28.10;;;307.80;1305.60;;;;;;5009191;28;20037;-77
2021/03/03 10:00:40;;;;;;;109.60;49.30;;;307.90;1305.60;;;;;;5010474;28;20106;-74
2021/03/03 10:03:14;;;;;;;44.15;27.98;;;308.10;1280.00;;;;;;5009086;28;20088;-75
2021/03/03 10:05:41;;;;;;;43.08;26.27;;;308.10;1254.40;;;;;;5008385;28;20045;-74
2021/03/03 10:08:09;;;;;;;48.03;27.83;;;308.10;1254.40;;;;;;5009800;28;20021;-76
2021/03/03 10:10:37;;;;;;;35.42;22.02;;;332.80;1280.00;;;;;;5010239;28;20520;-73
2021/03/03 10:13:04;;;;;;;37.55;24.15;;;332.90;1280.00;;;;;;5007965;28;20026;-74
2021/03/03 10:15:38;;;;;;;42.78;27.83;;;333.00;1305.60;;;;;;5010107;28;20050;-76
2021/03/03 10:18:08;;;;;;;37.90;21.42;;;333.10;1254.40;;;;;;5008201;28;20067;-78
2021/03/03 10:21:00;;;;;;;28.73;19.25;;;333.10;1228.80;;;;;;5011219;28;20018;-76
2021/03/03 10:23:30;;;;;;;30.30;20.33;;;333.20;1228.80;;;;;;5007714;28;20041;-74
2021/03/03 10:26:05;;;;;;;34.97;23.38;;;333.20;1254.40;;;;;;5009858;28;20048;-74
2021/03/03 10:28:32;;;;;;;42.67;29.65;;;333.30;1228.80;;;;;;5009815;28;20108;-79
2021/03/03 10:31:04;;;;;;;28.98;19.23;;;333.40;1203.20;;;;;;5009685;28;20030;-75
2021/03/03 10:33:38;;;;;;;43.67;27.80;;;333.50;1203.20;;;;;;5011110;28;20018;-75
2021/03/03 10:36:07;;;;;;;44.88;32.80;;;333.60;1228.80;;;;;;5011008;28;20030;-74
2021/03/03 10:38:37;;;;;;;44.70;28.65;;;333.60;1203.20;;;;;;5011038;28;20030;-75
2021/03/03 10:41:04;;;;;;;36.80;24.03;;;333.70;1203.20;;;;;;5009878;28;20026;-74
2021/03/03 10:43:30;;;;;;;29.30;21.10;;;358.40;1228.80;;;;;;5011070;28;20084;-74
2021/03/03 10:46:16;;;;;;;44.03;31.10;;;358.50;1228.80;;;;;;5010907;28;20025;-73
2021/03/03 10:48:42;;;;;;;36.05;22.23;;;358.60;1177.60;;;;;;5010929;28;20033;-75
2021/03/03 10:51:08;;;;;;;37.55;25.17;;;358.60;1152.00;;;;;;5010691;28;20523;-75
2021/03/03 10:53:54;;;;;;;32.55;21.25;;;358.70;1177.60;;;;;;5008956;28;20033;-74
2021/03/03 10:56:21;;;;;;;33.28;23.13;;;358.70;1152.00;;;;;;5010808;28;20046;-74
2021/03/03 10:58:47;;;;;;;34.90;23.48;;;358.80;1126.40;;;;;;5010646;28;20033;-75
2021/03/03 11:01:14;;;;;;;29.42;19.42;;;358.80;1152.00;;;;;;5010811;28;20495;-75
2021/03/03 11:03:58;;;;;;;34.53;20.85;;;359.00;1177.60;;;;;;5010972;28;20022;-75
2021/03/03 11:06:33;;;;;;;27.85;19.40;;;359.00;1126.40;;;;;;5010745;28;20026;-76
2021/03/03 11:08:59;;;;;;;32.67;21.08;;;359.00;1075.20;;;;;;5009217;28;20032;-77
2021/03/03 11:11:25;;;;;;;29.73;19.45;;;359.00;1075.20;;;;;;5010645;28;20037;-75
2021/03/03 11:13:50;;;;;;;34.67;21.83;;;359.00;1100.80;;;;;;5010687;28;20026;-77
2021/03/03 11:16:16;;;;;;;29.75;19.98;;;359.10;1100.80;;;;;;5010422;28;20388;-74
2021/03/03 11:18:42;;;;;;;32.45;20.27;;;359.30;1100.80;;;;;;5010748;28;20018;-76
2021/03/03 11:21:08;;;;;;;28.20;18.77;;;359.30;1100.80;;;;;;5010405;28;20460;-77
2021/03/03 11:23:34;;;;;;;21.92;14.68;;;359.30;1075.20;;;;;;5010767;28;20022;-76
2021/03/03 11:26:00;;;;;;;24.63;16.02;;;384.00;998.40;;;;;;5010636;28;20022;-77
2021/03/03 11:28:26;;;;;;;22.85;15.18;;;384.00;998.40;;;;;;5010282;28;20136;-80
2021/03/03 11:30:53;;;;;;;26.60;17.20;;;384.20;1024.00;;;;;;5010467;28;20033;-77
2021/03/03 11:33:18;;;;;;;26.55;16.98;;;384.30;1075.20;;;;;;5010453;28;20032;-77
2021/03/03 11:35:45;;;;;;;24.45;15.98;;;384.40;1049.60;;;;;;5010640;28;20018;-75
2021/03/03 11:38:11;;;;;;;23.13;15.88;;;384.80;998.40;;;;;;5010459;28;20046;-74
2021/03/03 11:40:37;;;;;;;36.05;25.27;;;384.40;972.80;;;;;;5010400;28;20026;-75
2021/03/03 11:43:03;;;;;;;33.58;23.48;;;384.50;998.40;;;;;;5010480;28;20040;-74
2021/03/03 11:45:29;;;;;;;27.55;18.48;;;384.80;1049.60;;;;;;5010557;28;20032;-74
2021/03/03 11:47:55;;;;;;;22.05;16.45;;;384.90;1024.00;;;;;;5009488;28;20384;-74
2021/03/03 11:50:21;;;;;;;25.23;16.40;;;409.70;1024.00;;;;;;5009007;28;20034;-76
2021/03/03 11:52:47;;;;;;;24.13;16.13;;;409.70;998.40;;;;;;5008765;28;20057;-75
2021/03/03 11:55:12;;;;;;;23.05;16.13;;;409.80;1024.00;;;;;;5010738;28;20061;-78
2021/03/03 11:57:38;;;;;;;21.88;15.85;;;409.90;1049.60;;;;;;5010420;28;20072;-75
2021/03/03 12:00:10;;;;;;;22.67;16.13;;;410.00;1024.00;;;;;;5010289;28;20493;-74
2021/03/03 12:02:36;;;;;;;23.70;16.00;;;410.10;998.40;;;;;;5008065;28;20041;-75